Flight Track Log - Related Links

Times and Time Zones

All times are in EDT time to prevent confusion due to time zone crossing. See the SWA767 flight status page for this flight to view local times or setup timezone preferences in your user account.

Time Position Orientation Groundspeed Altitude Reporting Facility
EDT Latitude Longitude Course Direction KTS MPH feet Rate Location/Type
Sat 08:51:34 AM 32.8333 -96.8333 177° South 147 169 1,700  Level Dallas / Fort Worth TRACON
Sat 08:54:03 AM 32.6942 -96.8233 177° South 223 257 8,600 2,297 Climbing Fort Worth Center
Sat 08:55:03 AM 32.6128 -96.8486 195° South 289 333 9,700 2,050 Climbing Fort Worth Center
Sat 08:56:03 AM 32.5275 -96.8739 194° South 308 354 12,700 3,150 Climbing Fort Worth Center
Sat 08:57:03 AM 32.4336 -96.8964 191° South 343 395 16,000 2,950 Climbing Fort Worth Center
Sat 08:58:03 AM 32.3375 -96.9167 190° South 352 405 18,600 2,450 Climbing Fort Worth Center
Sat 08:59:03 AM 32.2439 -96.9369 190° South 364 419 20,900 1,700 Climbing Fort Worth Center
Sat 09:00:03 AM 32.1269 -96.9547 187° South 380 437 22,000 550 Climbing Fort Worth Center
Sat 09:01:03 AM 32.0183 -96.9797 191° South 396 456 22,000  Level Fort Worth Center
Sat 09:02:03 AM 31.9142 -97.0094 194° South 389 448 22,000  Level Fort Worth Center
Sat 09:02:54 AM 31.8331 -97.0328 194° South 389 448 22,000  Level Houston Center
Sat 09:03:55 AM 31.7286 -97.0628 194° South 385 443 22,000  Level Houston Center
Sat 09:04:56 AM 31.6236 -97.0925 194° South 383 441 22,000  Level Houston Center
Sat 09:05:57 AM 31.5189 -97.1208 193° South 382 440 22,000  Level Houston Center
Sat 09:06:59 AM 31.4147 -97.1511 194° South 382 440 22,000  Level Houston Center
Sat 09:08:00 AM 31.3092 -97.1803 193° South 384 442 22,000 -98 Level Houston Center
Sat 09:09:01 AM 31.2042 -97.2108 194° South 385 443 21,800 -984 Descending Houston Center
Sat 09:10:02 AM 31.1067 -97.2492 199° South 369 425 20,000 -1,951 Descending Houston Center
Sat 09:11:04 AM 30.9997 -97.2906 198° South 349 402 17,800 -2,293 Descending Houston Center
Sat 09:12:05 AM 30.9089 -97.3269 199° South 355 409 15,300 -2,311 Descending Houston Center
Sat 09:13:06 AM 30.8197 -97.3597 198° South 341 392 13,100 -2,164 Descending Houston Center
Sat 09:14:07 AM 30.7350 -97.3919 198° South 323 372 10,900 -1,707 Descending Houston Center
Sat 09:15:09 AM 30.6628 -97.4439 212° Southwest 307 353 9,600 -1,463 Descending Houston Center
Sat 09:16:10 AM 30.6025 -97.4975 217° Southwest 276 318 7,900 -1,721 Descending Houston Center
Sat 09:17:11 AM 30.5506 -97.5600 226° Southwest 266 306 6,100 -1,623 Descending Houston Center
Sat 09:18:12 AM 30.5000 -97.6222 227° Southwest 264 304 4,600 -1,268 Descending Houston Center
Sat 09:19:14 AM 30.4450 -97.6706 217° Southwest 254 292 3,500 -780 Descending Houston Center
Sat 09:20:15 AM 30.3911 -97.6864 194° South 209 241 3,000 -246 Descending Houston Center
Sat 09:21:16 AM 30.3414 -97.6836 177° South 182 209 3,000 -488 Level Houston Center
Sat 09:22:18 AM 30.2856 -97.6803 177° South 174 200 2,000 -968 Descending Houston Center

Login

Don't have an account? Register now (free) for customized features, flight alerts, and more!